Time;durP1;ratioP1;P1;durP2;ratioP2;P2;SDS_P1;SDS_P2;PMS_P1;PMS_P2;Temp;Humidity;BMP_temperature;BMP_pressure;BME280_temperature;BME280_humidity;BME280_pressure;Samples;Min_cycle;Max_cycle;Signal;HPM_P1;HPM_P2
2024/02/14 00:01:55;;;;;;;4.50;2.40;;;;;;;9.91;100.00;99617.09;5098248;28;20471;-76
2024/02/14 00:04:21;;;;;;;7.35;2.75;;;;;;;9.69;100.00;99619.88;5081459;28;20356;-77
2024/02/14 00:06:47;;;;;;;11.52;4.28;;;;;;;9.55;100.00;99628.03;5081548;28;20059;-76
2024/02/14 00:09:13;;;;;;;5.53;2.95;;;;;;;9.57;100.00;99624.13;5115033;28;20385;-77
2024/02/14 00:11:38;;;;;;;7.47;3.28;;;;;;;9.57;100.00;99615.25;5115027;28;20028;-76
2024/02/14 00:14:04;;;;;;;17.98;5.80;;;;;;;9.43;100.00;99622.38;5081308;28;20039;-76
2024/02/14 00:16:32;;;;;;;10.55;4.47;;;;;;;9.41;100.00;99624.44;5098088;28;20467;-76
2024/02/14 00:18:58;;;;;;;7.47;2.58;;;;;;;9.41;100.00;99622.56;5114546;28;20088;-77
2024/02/14 00:21:24;;;;;;;5.32;2.92;;;;;;;9.44;100.00;99622.19;5064530;28;20032;-76
2024/02/14 00:23:50;;;;;;;3.25;2.17;;;;;;;9.51;100.00;99635.66;5081137;28;20130;-76
2024/02/14 00:26:16;;;;;;;3.95;2.40;;;;;;;9.56;100.00;99627.03;5097694;28;20019;-76
2024/02/14 00:28:41;;;;;;;3.50;2.30;;;;;;;9.64;100.00;99624.19;5097718;28;20479;-76
2024/02/14 00:31:07;;;;;;;5.47;2.45;;;;;;;9.78;100.00;99625.91;5097603;28;20073;-77
2024/02/14 00:33:53;;;;;;;4.35;2.13;;;;;;;9.87;100.00;99618.50;5100404;28;20027;-76
2024/02/14 00:36:19;;;;;;;5.70;2.55;;;;;;;9.91;100.00;99617.09;5080889;28;20057;-76
2024/02/14 00:38:45;;;;;;;3.40;2.28;;;;;;;9.89;100.00;99613.75;5080956;28;20030;-77
2024/02/14 00:41:11;;;;;;;4.75;2.15;;;;;;;9.92;100.00;99616.03;5080746;28;20035;-76
2024/02/14 00:43:37;;;;;;;3.63;2.10;;;;;;;9.93;100.00;99617.72;5097135;28;20529;-76
2024/02/14 00:46:02;;;;;;;4.60;2.47;;;;;;;9.93;100.00;99608.84;5080696;28;20069;-77
2024/02/14 00:48:28;;;;;;;3.05;2.00;;;;;;;9.93;100.00;99617.72;5097373;28;20123;-76
2024/02/14 00:50:54;;;;;;;4.07;1.95;;;;;;;9.93;100.00;99622.28;5080484;28;20356;-77
2024/02/14 00:53:20;;;;;;;8.82;2.28;;;;;;;9.97;100.00;99613.59;5115079;28;20431;-76
2024/02/14 00:55:46;;;;;;;4.00;2.30;;;;;;;9.99;100.00;99622.28;5097432;28;20467;-76
2024/02/14 00:58:12;;;;;;;5.38;2.05;;;;;;;10.00;100.00;99620.44;5080147;28;20070;-76
2024/02/14 01:00:37;;;;;;;8.85;2.03;;;;;;;9.98;100.00;99609.06;5080801;28;20036;-76
2024/02/14 01:03:03;;;;;;;5.00;2.22;;;;;;;9.95;100.00;99609.44;5080111;28;20036;-76
2024/02/14 01:05:29;;;;;;;3.72;1.88;;;;;;;9.90;100.00;99608.22;5080430;28;20039;-76
2024/02/14 01:07:54;;;;;;;4.80;1.70;;;;;;;9.97;100.00;99607.41;5080183;28;20582;-76
2024/02/14 01:10:21;;;;;;;3.78;1.70;;;;;;;9.93;100.00;99608.84;5115027;28;20031;-76
2024/02/14 01:12:46;;;;;;;5.25;2.13;;;;;;;9.94;100.00;99610.50;5113761;28;20023;-76
2024/02/14 01:15:12;;;;;;;4.95;1.58;;;;;;;9.92;100.00;99599.94;5080123;28;20038;-77
2024/02/14 01:17:38;;;;;;;6.53;2.03;;;;;;;9.91;100.00;99611.72;5096903;28;20055;-76
2024/02/14 01:20:08;;;;;;;2.78;1.52;;;;;;;9.90;100.00;99615.44;5097186;28;20042;-77
2024/02/14 01:22:53;;;;;;;5.93;1.50;;;;;;;9.91;100.00;99611.72;5099856;28;20126;-77
2024/02/14 01:25:23;;;;;;;9.35;2.25;;;;;;;9.90;100.00;99613.56;5081794;28;20043;-76
2024/02/14 01:27:49;;;;;;;4.40;1.70;;;;;;;9.97;100.00;99621.66;5079889;28;20533;-76
2024/02/14 01:30:14;;;;;;;6.68;1.58;;;;;;;10.02;100.00;99624.56;5079620;28;20479;-76
2024/02/14 01:32:40;;;;;;;5.07;1.70;;;;;;;10.05;100.00;99615.28;5079685;28;20130;-76
2024/02/14 01:35:06;;;;;;;2.13;1.10;;;;;;;10.06;100.00;99616.97;5079975;28;20034;-76
2024/02/14 01:37:33;;;;;;;2.47;1.42;;;;;;;10.10;100.00;99627.06;5096294;28;20032;-77
2024/02/14 01:39:58;;;;;;;3.55;1.33;;;;;;;10.12;100.00;99616.16;5113344;28;20372;-76
2024/02/14 01:42:24;;;;;;;2.85;1.42;;;;;;;10.14;100.00;99614.09;5114618;28;20062;-76
2024/02/14 01:44:50;;;;;;;9.27;1.52;;;;;;;10.11;100.00;99614.50;5079556;28;20527;-77
2024/02/14 01:47:16;;;;;;;3.20;1.45;;;;;;;10.12;100.00;99611.59;5079660;28;20034;-76
2024/02/14 01:49:44;;;;;;;6.53;1.17;;;;;;;10.13;100.00;99613.28;5079468;28;20038;-77
2024/02/14 01:52:10;;;;;;;6.63;1.55;;;;;;;10.13;100.00;99612.41;5079935;28;20039;-76
2024/02/14 01:54:36;;;;;;;6.95;1.70;;;;;;;10.10;100.00;99608.28;5096447;28;20036;-77
2024/02/14 01:57:03;;;;;;;8.73;1.80;;;;;;;10.13;100.00;99615.09;5079466;28;20032;-76
2024/02/14 01:59:30;;;;;;;6.15;1.70;;;;;;;10.12;100.00;99619.66;5097125;28;20032;-77
2024/02/14 02:01:56;;;;;;;4.00;1.23;;;;;;;10.13;100.00;99625.84;5079505;28;20126;-76
2024/02/14 02:04:21;;;;;;;7.13;1.58;;;;;;;10.11;100.00;99615.31;5079301;28;20066;-76
2024/02/14 02:06:47;;;;;;;5.05;1.15;;;;;;;10.10;100.00;99619.03;5079356;28;20108;-76
2024/02/14 02:09:14;;;;;;;12.57;1.70;;;;;;;10.08;100.00;99620.25;5095377;28;20035;-76
2024/02/14 02:11:48;;;;;;;4.90;1.30;;;;;;;10.07;100.00;99614.06;5112610;28;20050;-76
2024/02/14 02:14:34;;;;;;;4.18;1.20;;;;;;;10.10;100.00;99612.81;5084984;28;20050;-77
2024/02/14 02:17:21;;;;;;;6.30;2.05;;;;;;;10.08;100.00;99615.72;5098665;28;20522;-76
2024/02/14 02:20:08;;;;;;;7.20;1.42;;;;;;;10.08;100.00;99610.34;5098985;28;20036;-77
2024/02/14 02:22:37;;;;;;;8.15;1.73;;;;;;;10.06;100.00;99608.91;5096423;28;20024;-76
2024/02/14 02:25:24;;;;;;;5.00;1.65;;;;;;;10.08;100.00;99613.03;5084955;28;20572;-77
2024/02/14 02:28:01;;;;;;;7.93;1.70;;;;;;;10.06;100.00;99611.59;5112928;28;20532;-76
2024/02/14 02:30:31;;;;;;;7.82;1.67;;;;;;;10.02;100.00;99613.00;5080221;28;20111;-76
2024/02/14 02:32:58;;;;;;;7.43;1.48;;;;;;;10.04;100.00;99611.78;5112759;28;20067;-76
2024/02/14 02:35:24;;;;;;;5.95;1.52;;;;;;;10.05;100.00;99621.47;5096030;28;20111;-77
2024/02/14 02:38:09;;;;;;;3.88;1.13;;;;;;;10.07;100.00;99623.97;5113731;28;20031;-76
2024/02/14 02:40:55;;;;;;;7.47;1.77;;;;;;;10.07;100.00;99632.03;5112280;28;20372;-77
2024/02/14 02:43:40;;;;;;;1.77;1.05;;;;;;;10.08;100.00;99615.72;5098109;28;20035;-76
2024/02/14 02:46:25;;;;;;;7.13;1.40;;;;;;;10.09;100.00;99608.50;5113089;28;20084;-76
2024/02/14 02:49:31;;;;;;;4.72;1.08;;;;;;;10.07;100.00;99602.50;5112666;28;20085;-76
2024/02/14 02:52:00;;;;;;;5.03;1.30;;;;;;;10.09;100.00;99601.25;5079649;28;20040;-77
2024/02/14 02:54:43;;;;;;;8.52;1.42;;;;;;;10.08;100.00;99598.75;5112308;28;20024;-77
2024/02/14 02:57:23;;;;;;;10.13;1.38;;;;;;;10.12;100.00;99610.78;5083092;28;20027;-76
2024/02/14 02:59:49;;;;;;;10.55;1.52;;;;;;;10.13;100.00;99618.66;5112282;28;20395;-77
2024/02/14 03:02:15;;;;;;;1.42;1.00;;;;;;;10.15;100.00;99612.22;5095581;28;20031;-76
2024/02/14 03:05:03;;;;;;;7.25;1.40;;;;;;;10.14;100.00;99603.34;5085444;28;20035;-77
2024/02/14 03:07:50;;;;;;;3.45;1.13;;;;;;;10.14;100.00;99603.34;5098876;28;20027;-77
2024/02/14 03:10:36;;;;;;;5.30;1.35;;;;;;;10.13;100.00;99597.16;5098612;28;20045;-77
2024/02/14 03:13:21;;;;;;;3.35;1.20;;;;;;;10.17;100.00;99599.44;5098223;28;20028;-76
2024/02/14 03:16:07;;;;;;;9.20;1.42;;;;;;;10.15;100.00;99598.81;5098618;28;20024;-77
2024/02/14 03:18:32;;;;;;;8.77;1.63;;;;;;;10.15;100.00;99593.44;5078605;28;20031;-77
2024/02/14 03:20:58;;;;;;;3.67;1.20;;;;;;;10.17;100.00;99597.56;5112417;28;20042;-77
2024/02/14 03:23:24;;;;;;;5.15;1.50;;;;;;;10.16;100.00;99598.63;5082072;28;20032;-76
2024/02/14 03:25:51;;;;;;;5.38;1.20;;;;;;;10.15;100.00;99601.50;5082205;28;20120;-76
2024/02/14 03:28:17;;;;;;;2.45;1.40;;;;;;;10.13;100.00;99588.25;5099132;28;20035;-76
2024/02/14 03:30:43;;;;;;;6.13;1.52;;;;;;;10.12;100.00;99595.47;5098847;28;20042;-77
2024/02/14 03:33:09;;;;;;;1.63;1.00;;;;;;;10.08;100.00;99588.88;5082650;28;20031;-76
2024/02/14 03:35:34;;;;;;;7.72;1.73;;;;;;;10.08;100.00;99590.69;5098790;28;20371;-76
2024/02/14 03:38:01;;;;;;;3.80;1.55;;;;;;;10.09;100.00;99590.53;5116489;28;20035;-76
2024/02/14 03:40:29;;;;;;;4.70;1.15;;;;;;;10.15;100.00;99591.56;5115662;28;20030;-76
2024/02/14 03:42:56;;;;;;;2.25;1.20;;;;;;;10.19;100.00;99586.59;5099078;28;20035;-76
2024/02/14 03:45:22;;;;;;;1.48;0.80;;;;;;;10.19;100.00;99590.16;5082016;28;20036;-77
2024/02/14 03:47:48;;;;;;;4.07;0.90;;;;;;;10.19;100.00;99587.47;5098183;28;20023;-77
2024/02/14 03:50:15;;;;;;;0.95;0.90;;;;;;;10.18;100.00;99577.72;5116261;28;20541;-76
2024/02/14 03:52:42;;;;;;;2.05;0.80;;;;;;;10.18;100.00;99579.59;5098582;28;20051;-76
2024/02/14 03:55:08;;;;;;;3.17;0.95;;;;;;;10.20;100.00;99564.94;5098961;28;20532;-77
2024/02/14 03:57:38;;;;;;;1.95;1.00;;;;;;;10.22;100.00;99572.78;5098110;28;20513;-76
2024/02/14 04:00:10;;;;;;;6.70;1.05;;;;;;;10.26;100.00;99574.84;5099523;28;20028;-76
2024/02/14 04:02:36;;;;;;;7.65;1.08;;;;;;;10.31;100.00;99576.97;5115366;28;20032;-77
2024/02/14 04:05:05;;;;;;;3.00;1.48;;;;;;;10.31;100.00;99571.59;5098039;28;20035;-77
2024/02/14 04:07:31;;;;;;;4.63;1.35;;;;;;;10.34;100.00;99569.31;5098700;28;20378;-76
2024/02/14 04:09:57;;;;;;;4.10;1.15;;;;;;;10.39;100.00;99574.09;5080960;28;20023;-77
2024/02/14 04:12:23;;;;;;;2.90;1.00;;;;;;;10.42;100.00;99571.00;5097981;28;20376;-77
2024/02/14 04:14:48;;;;;;;2.42;0.95;;;;;;;10.47;100.00;99575.75;5114989;28;20035;-76
2024/02/14 04:17:14;;;;;;;5.28;1.35;;;;;;;10.49;100.00;99579.91;5097614;28;20054;-76
2024/02/14 04:19:40;;;;;;;5.38;1.25;;;;;;;10.49;100.00;99581.78;5097824;28;20128;-76
2024/02/14 04:22:06;;;;;;;3.47;1.05;;;;;;;10.51;100.00;99572.47;5097719;28;20068;-76
2024/02/14 04:24:36;;;;;;;6.03;1.00;;;;;;;10.51;100.00;99577.03;5097841;28;20028;-77
2024/02/14 04:27:04;;;;;;;0.77;0.77;;;;;;;10.50;100.00;99580.72;5081071;28;20035;-77
2024/02/14 04:29:32;;;;;;;2.65;1.20;;;;;;;10.54;100.00;99585.50;5081167;28;20031;-77
2024/02/14 04:31:59;;;;;;;6.57;1.40;;;;;;;10.51;100.00;99583.22;5081150;28;20411;-76
2024/02/14 04:34:25;;;;;;;6.65;1.27;;;;;;;10.54;100.00;99585.50;5097326;28;20035;-76
2024/02/14 04:36:51;;;;;;;7.63;1.20;;;;;;;10.56;100.00;99591.50;5097331;28;20027;-76
2024/02/14 04:39:17;;;;;;;4.90;1.50;;;;;;;10.55;100.00;99586.31;5115970;28;20020;-76
2024/02/14 04:41:43;;;;;;;2.92;0.88;;;;;;;10.50;100.00;99581.53;5080743;28;20051;-77
2024/02/14 04:44:08;;;;;;;6.55;1.35;;;;;;;10.50;100.00;99578.03;5080776;28;20028;-76
2024/02/14 04:46:35;;;;;;;11.25;1.42;;;;;;;10.49;100.00;99571.84;5080627;28;20028;-76
2024/02/14 04:49:04;;;;;;;5.13;1.25;;;;;;;10.46;100.00;99574.13;5097574;28;20034;-77
2024/02/14 04:51:30;;;;;;;2.55;1.25;;;;;;;10.39;100.00;99567.91;5097496;28;20471;-77
2024/02/14 04:53:58;;;;;;;8.48;1.55;;;;;;;10.36;100.00;99577.19;5114163;28;20050;-76
2024/02/14 04:56:26;;;;;;;7.28;1.45;;;;;;;10.45;100.00;99567.94;5080673;28;20062;-76
2024/02/14 04:58:53;;;;;;;3.63;1.35;;;;;;;10.51;100.00;99572.47;5097354;28;20081;-76
2024/02/14 05:01:18;;;;;;;6.40;1.25;;;;;;;10.52;100.00;99571.44;5080381;28;20032;-76
2024/02/14 05:03:44;;;;;;;11.23;1.33;;;;;;;10.54;100.00;99582.00;5097145;28;20352;-76
2024/02/14 05:06:10;;;;;;;5.38;1.40;;;;;;;10.57;100.00;99587.78;5096743;28;20217;-76
2024/02/14 05:08:35;;;;;;;7.53;1.45;;;;;;;10.60;100.00;99586.53;5080248;28;20050;-76
2024/02/14 05:11:01;;;;;;;8.27;1.17;;;;;;;10.61;100.00;99579.28;5079922;28;20034;-76
2024/02/14 05:13:27;;;;;;;4.25;1.10;;;;;;;10.62;100.00;99584.47;5096859;28;20114;-76
2024/02/14 05:15:53;;;;;;;9.93;1.60;;;;;;;10.61;100.00;99573.91;5080072;28;20126;-75
2024/02/14 05:18:18;;;;;;;6.93;1.40;;;;;;;10.57;100.00;99579.72;5096830;28;20044;-76
2024/02/14 05:20:44;;;;;;;11.57;1.98;;;;;;;10.56;100.00;99580.75;5080012;28;20028;-77
2024/02/14 05:23:11;;;;;;;8.02;1.38;;;;;;;10.56;100.00;99575.38;5080177;28;20043;-76
2024/02/14 05:25:36;;;;;;;5.72;1.35;;;;;;;10.59;100.00;99584.91;5096655;28;20035;-76
2024/02/14 05:28:02;;;;;;;7.63;1.50;;;;;;;10.60;100.00;99578.47;5079934;28;20066;-76
2024/02/14 05:30:28;;;;;;;9.32;1.73;;;;;;;10.63;100.00;99583.44;5079659;28;20035;-77
2024/02/14 05:33:04;;;;;;;6.63;1.10;;;;;;;10.63;100.00;99585.31;5114380;28;20035;-76
2024/02/14 05:35:29;;;;;;;7.53;1.73;;;;;;;10.63;100.00;99579.91;5096411;28;20525;-76
2024/02/14 05:37:55;;;;;;;12.80;1.63;;;;;;;10.63;100.00;99579.91;5079741;28;20032;-77
2024/02/14 05:40:21;;;;;;;9.77;1.63;;;;;;;10.61;100.00;99584.66;5079599;28;20043;-77
2024/02/14 05:42:47;;;;;;;8.35;1.50;;;;;;;10.59;100.00;99586.75;5113013;28;20024;-77
2024/02/14 05:45:13;;;;;;;6.40;1.23;;;;;;;10.62;100.00;99589.84;5095569;28;20024;-76
2024/02/14 05:47:39;;;;;;;7.70;1.48;;;;;;;10.62;100.00;99591.72;5096051;28;20036;-76
2024/02/14 05:50:06;;;;;;;12.88;1.83;;;;;;;10.62;100.00;99597.09;5096330;28;20031;-76
2024/02/14 05:52:32;;;;;;;9.70;1.40;;;;;;;10.63;100.00;99590.69;5079807;28;20451;-76
2024/02/14 05:54:58;;;;;;;8.05;1.83;;;;;;;10.64;100.00;99590.47;5079519;28;20126;-77
2024/02/14 05:57:24;;;;;;;6.50;1.35;;;;;;;10.64;100.00;99581.56;5096291;28;20062;-77
2024/02/14 05:59:49;;;;;;;5.75;1.40;;;;;;;10.68;100.00;99586.34;5079494;28;20030;-76
2024/02/14 06:02:15;;;;;;;7.18;1.70;;;;;;;10.69;100.00;99589.84;5079440;28;20032;-76
2024/02/14 06:04:42;;;;;;;10.40;1.38;;;;;;;10.70;100.00;99580.75;5096230;28;20039;-76
2024/02/14 06:07:11;;;;;;;7.45;1.40;;;;;;;10.72;100.00;99573.34;5079496;28;20130;-76
2024/02/14 06:09:37;;;;;;;3.38;1.27;;;;;;;10.74;100.00;99572.09;5096072;28;20027;-76
2024/02/14 06:12:03;;;;;;;5.00;1.60;;;;;;;10.74;100.00;99563.19;5096084;28;20038;-76
2024/02/14 06:14:30;;;;;;;13.38;1.73;;;;;;;10.75;100.00;99572.91;5079277;28;20031;-77
2024/02/14 06:16:56;;;;;;;2.42;1.75;;;;;;;10.74;100.00;99579.31;5113016;28;20028;-77
2024/02/14 06:19:22;;;;;;;5.63;1.25;;;;;;;10.76;100.00;99583.44;5095866;28;20032;-77
2024/02/14 06:21:48;;;;;;;4.53;1.83;;;;;;;10.74;100.00;99584.69;5112896;28;20495;-77
2024/02/14 06:24:14;;;;;;;7.80;1.65;;;;;;;10.74;100.00;99580.16;5095977;28;20035;-76
2024/02/14 06:26:39;;;;;;;4.93;2.63;;;;;;;10.74;100.00;99577.47;5079174;28;20043;-77
2024/02/14 06:29:05;;;;;;;16.73;3.33;;;;;;;10.74;100.00;99572.09;5079226;28;20039;-77
2024/02/14 06:31:31;;;;;;;7.22;2.33;;;;;;;10.75;100.00;99570.22;5078811;28;20043;-76
2024/02/14 06:33:56;;;;;;;10.18;2.35;;;;;;;10.75;100.00;99583.66;5112491;28;20453;-77
2024/02/14 06:36:22;;;;;;;9.75;1.95;;;;;;;10.75;100.00;99579.13;5095880;28;20061;-77
2024/02/14 06:38:49;;;;;;;7.07;1.90;;;;;;;10.78;100.00;99585.94;5095424;28;20031;-76
2024/02/14 06:41:15;;;;;;;7.07;1.73;;;;;;;10.78;100.00;99583.25;5079139;28;20031;-76
2024/02/14 06:43:40;;;;;;;7.32;1.42;;;;;;;10.82;100.00;99584.47;5079077;28;20042;-76
2024/02/14 06:46:06;;;;;;;7.32;1.60;;;;;;;10.81;100.00;99588.22;5079293;28;20050;-76
2024/02/14 06:48:35;;;;;;;5.90;1.38;;;;;;;10.83;100.00;99585.34;5080127;28;20028;-76
2024/02/14 06:51:01;;;;;;;3.17;1.10;;;;;;;10.82;100.00;99594.41;5078670;28;20084;-77
2024/02/14 06:53:27;;;;;;;4.25;1.50;;;;;;;10.80;100.00;99594.63;5078955;28;20032;-76
2024/02/14 06:55:53;;;;;;;7.13;1.35;;;;;;;10.83;100.00;99596.09;5078933;28;20036;-76
2024/02/14 06:58:19;;;;;;;2.55;0.88;;;;;;;10.83;100.00;99596.91;5115846;28;20024;-76
2024/02/14 07:00:45;;;;;;;4.72;1.42;;;;;;;10.84;100.00;99595.03;5099619;28;20036;-77
2024/02/14 07:03:10;;;;;;;7.85;1.35;;;;;;;10.82;100.00;99600.63;5099439;28;20046;-77
2024/02/14 07:05:36;;;;;;;2.83;1.40;;;;;;;10.85;100.00;99605.59;5099103;28;20032;-76
2024/02/14 07:08:05;;;;;;;3.55;0.88;;;;;;;10.83;100.00;99609.53;5082599;28;20048;-77
2024/02/14 07:10:32;;;;;;;2.58;0.70;;;;;;;10.84;100.00;99614.69;5098684;28;20032;-76
2024/02/14 07:12:57;;;;;;;7.35;1.10;;;;;;;10.87;100.00;99613.44;5116175;28;20027;-76
2024/02/14 07:15:25;;;;;;;3.17;0.95;;;;;;;10.88;100.00;99613.25;5082430;28;20092;-76
2024/02/14 07:17:51;;;;;;;2.75;0.90;;;;;;;10.92;100.00;99627.09;5099021;28;20067;-76
2024/02/14 07:20:17;;;;;;;4.03;0.90;;;;;;;10.92;100.00;99625.25;5083072;28;20451;-76
2024/02/14 07:22:45;;;;;;;5.30;1.08;;;;;;;10.92;100.00;99622.56;5099079;28;20365;-76
2024/02/14 07:25:12;;;;;;;3.83;1.00;;;;;;;10.94;100.00;99619.66;5115828;28;20027;-77
2024/02/14 07:27:37;;;;;;;1.75;0.77;;;;;;;10.98;100.00;99627.13;5098514;28;20077;-76
2024/02/14 07:30:05;;;;;;;3.80;1.17;;;;;;;11.00;100.00;99622.34;5098664;28;20059;-77
2024/02/14 07:32:31;;;;;;;4.47;0.70;;;;;;;11.00;100.00;99627.72;5099194;28;20085;-76
2024/02/14 07:34:57;;;;;;;0.65;0.65;;;;;;;11.03;100.00;99634.56;5098835;28;20043;-76
2024/02/14 07:37:22;;;;;;;3.85;0.52;;;;;;;11.03;100.00;99631.88;5098781;28;20059;-76
2024/02/14 07:39:48;;;;;;;0.88;0.77;;;;;;;10.99;100.00;99631.47;5115677;28;20036;-76
2024/02/14 07:42:14;;;;;;;3.30;0.68;;;;;;;11.04;100.00;99640.78;5081619;28;20036;-76
2024/02/14 07:44:39;;;;;;;1.83;0.57;;;;;;;11.04;100.00;99648.84;5098338;28;20125;-77
2024/02/14 07:47:05;;;;;;;4.00;0.90;;;;;;;11.04;100.00;99648.84;5098697;28;20055;-76
2024/02/14 07:49:31;;;;;;;0.77;0.70;;;;;;;11.07;100.00;99651.13;5098250;28;20037;-76
2024/02/14 07:51:56;;;;;;;0.75;0.60;;;;;;;11.05;100.00;99656.69;5081711;28;20032;-77
2024/02/14 07:54:22;;;;;;;1.58;0.95;;;;;;;11.06;100.00;99649.47;5081542;28;20031;-76
2024/02/14 07:56:48;;;;;;;1.40;0.80;;;;;;;11.05;100.00;99659.41;5081529;28;20039;-77
2024/02/14 07:59:13;;;;;;;2.53;0.70;;;;;;;11.05;100.00;99664.78;5081860;28;20055;-77
2024/02/14 08:01:39;;;;;;;1.55;0.68;;;;;;;11.02;100.00;99673.25;5097903;28;20106;-76
2024/02/14 08:04:05;;;;;;;1.75;0.90;;;;;;;11.01;100.00;99671.63;5114645;28;20077;-77
2024/02/14 08:06:30;;;;;;;4.13;0.80;;;;;;;10.99;100.00;99674.50;5081363;28;20039;-77
2024/02/14 08:09:01;;;;;;;1.17;0.65;;;;;;;10.98;100.00;99675.53;5097362;28;20035;-76
2024/02/14 08:11:27;;;;;;;2.47;0.80;;;;;;;10.95;100.00;99677.78;5098632;28;20028;-77
2024/02/14 08:13:53;;;;;;;0.50;0.50;;;;;;;10.93;100.00;99678.00;5098185;28;20068;-76
2024/02/14 08:16:18;;;;;;;1.98;1.00;;;;;;;10.96;100.00;99687.53;5114670;28;20023;-77
2024/02/14 08:18:44;;;;;;;1.15;0.77;;;;;;;10.95;100.00;99691.25;5097506;28;20124;-77
2024/02/14 08:21:10;;;;;;;6.55;1.05;;;;;;;10.92;100.00;99692.47;5097940;28;20127;-77
2024/02/14 08:23:38;;;;;;;1.67;0.60;;;;;;;10.94;100.00;99695.78;5098051;28;20087;-76
2024/02/14 08:26:10;;;;;;;2.30;0.93;;;;;;;10.95;100.00;99702.00;5114594;28;20027;-77
2024/02/14 08:28:40;;;;;;;4.10;1.20;;;;;;;10.95;100.00;99702.00;5098636;28;20479;-77
2024/02/14 08:31:12;;;;;;;1.98;1.38;;;;;;;10.97;100.00;99710.69;5097554;28;20028;-76
2024/02/14 08:33:38;;;;;;;8.18;1.42;;;;;;;10.98;100.00;99717.72;5097679;28;20032;-77
2024/02/14 08:36:05;;;;;;;2.78;0.70;;;;;;;10.89;100.00;99708.19;5114206;28;20024;-76
2024/02/14 08:38:30;;;;;;;1.65;1.10;;;;;;;10.96;100.00;99720.63;5114479;28;20490;-76
2024/02/14 08:40:56;;;;;;;2.22;0.85;;;;;;;10.98;100.00;99723.97;5097642;28;20035;-76
2024/02/14 08:43:24;;;;;;;0.63;0.60;;;;;;;11.00;100.00;99727.25;5114094;28;20027;-76
2024/02/14 08:45:51;;;;;;;9.13;1.58;;;;;;;10.97;100.00;99733.03;5080653;28;20391;-77
2024/02/14 08:48:18;;;;;;;2.88;0.68;;;;;;;11.05;100.00;99739.28;5114296;28;20456;-76
2024/02/14 08:50:45;;;;;;;4.28;0.70;;;;;;;11.09;100.00;99735.16;5097382;28;20486;-77
2024/02/14 08:53:13;;;;;;;2.42;0.73;;;;;;;11.12;100.00;99730.19;5114217;28;20075;-77
2024/02/14 08:55:40;;;;;;;9.05;1.70;;;;;;;11.15;100.00;99739.72;5114153;28;20051;-76
2024/02/14 08:58:06;;;;;;;1.75;0.90;;;;;;;11.16;100.00;99744.88;5096805;28;20089;-77
2024/02/14 09:00:35;;;;;;;8.27;1.50;;;;;;;11.18;100.00;99756.25;5097096;28;20415;-77
2024/02/14 09:03:01;;;;;;;5.28;1.25;;;;;;;11.17;100.00;99751.09;5113001;28;20034;-77
2024/02/14 09:05:28;;;;;;;7.13;1.63;;;;;;;11.16;100.00;99747.56;5095633;28;20122;-77
2024/02/14 09:07:54;;;;;;;6.63;1.45;;;;;;;11.24;100.00;99743.84;5113563;28;20081;-76
2024/02/14 09:10:20;;;;;;;12.77;1.60;;;;;;;11.40;100.00;99753.38;5096475;28;20364;-76
2024/02/14 09:12:46;;;;;;;0.95;0.82;;;;;;;11.55;100.00;99747.81;5113484;28;20031;-76
2024/02/14 09:15:12;;;;;;;1.02;1.02;;;;;;;11.78;100.00;99744.72;5096414;28;20024;-77
2024/02/14 09:17:40;;;;;;;0.75;0.70;;;;;;;11.87;100.00;99741.59;5113942;28;20020;-77
2024/02/14 09:20:09;;;;;;;4.10;0.80;;;;;;;11.85;100.00;99746.38;5112868;28;20070;-76
2024/02/14 09:22:38;;;;;;;12.95;1.65;;;;;;;11.82;100.00;99746.75;5113572;28;20046;-77
2024/02/14 09:25:04;;;;;;;3.65;1.58;;;;;;;11.85;100.00;99745.50;5096726;28;20039;-77
2024/02/14 09:27:31;;;;;;;4.93;1.80;;;;;;;11.87;100.00;99749.69;5096360;28;20414;-77
2024/02/14 09:29:57;;;;;;;10.13;1.98;;;;;;;11.85;100.00;99758.97;5078920;28;20035;-77
2024/02/14 09:32:22;;;;;;;10.75;2.00;;;;;;;11.89;100.00;99776.44;5113144;28;20049;-76
2024/02/14 09:34:48;;;;;;;11.65;2.78;;;;;;;11.86;100.00;99766.91;5079742;28;20092;-77
2024/02/14 09:37:13;;;;;;;8.60;1.75;;;;;;;11.86;100.00;99772.28;5096544;28;20114;-76
2024/02/14 09:39:39;;;;;;;8.40;1.88;;;;;;;11.88;100.00;99772.91;5079914;28;20114;-77
2024/02/14 09:42:13;;;;;;;9.38;2.25;;;;;;;11.80;100.00;99761.47;5114800;28;20027;-76
2024/02/14 09:44:40;;;;;;;6.45;1.77;;;;;;;11.74;100.00;99778.47;5079591;28;20361;-77
2024/02/14 09:47:06;;;;;;;6.47;1.52;;;;;;;11.64;100.00;99774.34;5079436;28;20035;-76
2024/02/14 09:49:32;;;;;;;11.35;2.72;;;;;;;11.58;100.00;99760.88;5079442;28;20494;-76
2024/02/14 09:51:59;;;;;;;9.63;1.85;;;;;;;11.56;100.00;99777.22;5096338;28;20036;-77
2024/02/14 09:54:25;;;;;;;4.07;1.35;;;;;;;11.56;100.00;99774.53;5079203;28;20035;-77
2024/02/14 09:56:53;;;;;;;15.38;2.53;;;;;;;11.56;100.00;99774.53;5096205;28;20035;-76
2024/02/14 09:59:19;;;;;;;11.52;2.35;;;;;;;11.57;100.00;99775.38;5113006;28;20114;-76
2024/02/14 10:01:45;;;;;;;23.05;2.85;;;;;;;11.57;100.00;99780.75;5096186;28;20084;-76
2024/02/14 10:04:11;;;;;;;2.90;1.38;;;;;;;11.59;100.00;99775.97;5096168;28;20088;-76
2024/02/14 10:06:37;;;;;;;16.00;2.30;;;;;;;11.65;100.00;99788.63;5079410;28;20035;-76
2024/02/14 10:09:06;;;;;;;10.18;2.15;;;;;;;11.73;100.00;99782.22;5080210;28;20036;-77
2024/02/14 10:11:32;;;;;;;20.48;2.72;;;;;;;11.74;100.00;99781.97;5078845;28;20035;-77
2024/02/14 10:14:02;;;;;;;6.57;1.58;;;;;;;11.63;100.00;99788.00;5112592;28;20102;-77
2024/02/14 10:16:29;;;;;;;15.65;2.47;;;;;;;11.66;100.00;99782.19;5112878;28;20039;-77
2024/02/14 10:18:56;;;;;;;8.13;2.00;;;;;;;11.82;100.00;99794.41;5112705;28;20027;-77
2024/02/14 10:21:21;;;;;;;15.32;2.70;;;;;;;11.81;100.00;99798.97;5079220;28;20063;-76
2024/02/14 10:23:52;;;;;;;14.38;3.00;;;;;;;11.80;100.00;99794.66;5079175;28;20070;-76
2024/02/14 10:26:18;;;;;;;11.60;1.95;;;;;;;11.73;100.00;99796.50;5079935;28;20070;-76
2024/02/14 10:28:44;;;;;;;12.98;1.83;;;;;;;11.72;100.00;99794.00;5095910;28;20063;-76
2024/02/14 10:31:13;;;;;;;10.05;2.95;;;;;;;11.71;100.00;99800.44;5097405;28;20027;-76
2024/02/14 10:33:39;;;;;;;7.43;1.95;;;;;;;11.79;100.00;99801.03;5083153;28;20036;-76
2024/02/14 10:36:07;;;;;;;15.95;3.15;;;;;;;12.05;100.00;99797.53;5083180;28;20458;-76
2024/02/14 10:38:34;;;;;;;16.92;2.85;;;;;;;12.26;100.00;99796.47;5116777;28;20032;-76
2024/02/14 10:41:00;;;;;;;4.65;1.52;;;;;;;12.42;100.00;99811.38;5083157;28;20043;-77
2024/02/14 10:43:27;;;;;;;2.58;0.88;;;;;;;12.52;100.00;99814.47;5116437;28;20024;-76
2024/02/14 10:45:54;;;;;;;3.97;1.63;;;;;;;12.56;100.00;99816.75;5082866;28;20031;-76
2024/02/14 10:48:24;;;;;;;11.85;1.77;;;;;;;12.69;100.00;99825.59;5099442;28;20031;-77
2024/02/14 10:50:53;;;;;;;11.32;2.58;;;;;;;12.86;100.00;99812.50;5083007;28;20027;-76
2024/02/14 10:53:19;;;;;;;7.38;1.42;;;;;;;12.98;100.00;99809.94;5099336;28;20087;-76
2024/02/14 10:55:48;;;;;;;10.25;2.13;;;;;;;12.97;100.00;99813.69;5082436;28;20126;-77
2024/02/14 10:58:16;;;;;;;15.32;2.15;;;;;;;12.97;100.00;99813.69;5082647;28;20467;-77
2024/02/14 11:00:44;;;;;;;12.18;2.17;;;;;;;12.84;100.00;99809.19;5099485;28;20048;-76
2024/02/14 11:03:10;;;;;;;12.40;2.63;;;;;;;12.75;100.00;99815.84;5116365;28;20530;-76
2024/02/14 11:05:46;;;;;;;10.80;2.03;;;;;;;12.77;100.00;99808.38;5099401;28;20023;-77
2024/02/14 11:08:20;;;;;;;13.80;2.15;;;;;;;12.77;100.00;99809.19;5116503;28;20467;-77
2024/02/14 11:10:55;;;;;;;12.82;2.65;;;;;;;12.69;100.00;99816.69;5116182;28;20020;-77
2024/02/14 11:13:21;;;;;;;5.45;1.73;;;;;;;12.57;100.00;99821.06;5115893;28;20449;-76
2024/02/14 11:15:47;;;;;;;16.33;2.33;;;;;;;12.59;100.00;99832.50;5115870;28;20035;-77
2024/02/14 11:18:12;;;;;;;15.38;2.10;;;;;;;12.65;100.00;99827.09;5082286;28;20065;-76
2024/02/14 11:20:40;;;;;;;13.23;1.98;;;;;;;12.73;100.00;99829.56;5082443;28;20428;-76
2024/02/14 11:23:11;;;;;;;11.35;2.38;;;;;;;12.82;100.00;99829.31;5099499;28;20031;-76
2024/02/14 11:25:38;;;;;;;16.70;2.55;;;;;;;12.89;100.00;99835.53;5099395;28;20036;-76
2024/02/14 11:28:19;;;;;;;15.00;2.30;;;;;;;12.97;100.00;99833.41;5098904;28;20039;-77